Time;durP1;ratioP1;P1;durP2;ratioP2;P2;SDS_P1;SDS_P2;PMS_P1;PMS_P2;Temp;Humidity;BMP_temperature;BMP_pressure;BME280_temperature;BME280_humidity;BME280_pressure;Samples;Min_cycle;Max_cycle;Signal;HPM_P1;HPM_P2
2021/10/28 06:42:22;;;;;;;11.40;7.13;;;;;;;;;;3814801;37;20055;-61
2021/10/28 06:44:50;;;;;;;12.25;7.22;;;;;;;;;;4381486;32;20642;-61
2021/10/28 06:47:17;;;;;;;11.50;7.82;;;;;;;;;;4403140;32;20116;-61
2021/10/28 06:49:43;;;;;;;10.50;7.20;;;;;;;;;;4390825;32;20074;-61
2021/10/28 06:52:12;;;;;;;13.02;7.00;;;;;;;;;;4377713;32;20458;-60
2021/10/28 06:54:42;;;;;;;11.32;7.15;;;;;;;;;;4378107;32;20466;-62
2021/10/28 06:57:18;;;;;;;10.73;7.00;;;;;;;;;;4390713;32;20156;-64
2021/10/28 07:02:34;;;;;;;11.77;7.50;;;;;;;;;;4392960;32;20081;-62
2021/10/28 07:05:02;;;;;;;12.13;7.35;;;;;;;;;;4402546;32;20457;-63
2021/10/28 07:07:30;;;;;;;15.38;8.85;;;;;;;;;;4402902;32;20076;-62
2021/10/28 07:15:20;;;;;;;10.32;7.12;;;;;;;;;;4402627;32;20149;-64
2021/10/28 08:06:12;;;;;;;12.48;7.95;;;;;;;;;;4370516;32;20170;-62
2021/10/28 08:19:45;;;;;;;12.60;6.97;;;;;;;;;;4391844;32;20092;-62
2021/10/28 08:22:33;;;;;;;10.38;6.87;;;;;;;;;;4379690;32;20062;-63
2021/10/28 08:30:12;;;;;;;9.82;7.05;;;;;;;;;;4391971;32;20154;-61
2021/10/28 08:32:39;;;;;;;16.08;7.25;;;;;;;;;;4366225;32;20062;-62
2021/10/28 08:35:07;;;;;;;11.48;7.07;;;;;;;;;;4366504;32;20070;-61
2021/10/28 08:37:50;;;;;;;10.20;6.12;;;;;;;;;;4378823;32;20089;-64
2021/10/28 08:40:17;;;;;;;11.20;6.72;;;;;;;;;;4367702;32;20534;-63
2021/10/28 08:42:44;;;;;;;11.12;7.10;;;;;;;;;;4378824;32;20090;-63
2021/10/28 08:45:14;;;;;;;12.25;6.72;;;;;;;;;;4378652;32;20513;-61
2021/10/28 08:47:47;;;;;;;11.98;7.15;;;;;;;;;;4367108;32;20069;-63
2021/10/28 08:50:24;;;;;;;11.77;6.72;;;;;;;;;;4379173;32;20100;-63
2021/10/28 09:23:56;;;;;;;9.98;6.35;;;;;;;;;;4380650;32;20093;-61
2021/10/28 09:26:50;;;;;;;;;;;;;;;;;;4381556;32;20508;-63
2021/10/28 09:30:12;;;;;;;;;;;;;;;;;;4390590;32;20061;-64
2021/10/28 09:32:19;;;;;;;9.43;6.47;;;;;;;;;;4384904;32;19980;-62
2021/10/28 09:35:08;;;;;;;12.40;6.50;;;;;;;;;;4355831;32;20101;-63
2021/10/28 09:43:45;;;;;;;12.07;6.80;;;;;;;;;;4380172;32;20084;-62
2021/10/28 09:47:05;;;;;;;9.55;6.47;;;;;;;;;;4371016;32;20145;-63
2021/10/28 09:51:51;;;;;;;11.68;6.40;;;;;;;;;;4377706;32;20074;-62
2021/10/28 10:00:12;;;;;;;9.03;6.33;;;;;;;;;;4390754;32;20078;-61
2021/10/28 10:02:53;;;;;;;9.43;6.12;;;;;;;;;;4362852;32;20088;-63
2021/10/28 10:05:21;;;;;;;10.18;6.53;;;;;;;;;;4370932;32;20162;-65
2021/10/28 10:07:48;;;;;;;12.98;6.80;;;;;;;;;;4356844;32;20066;-64
2021/10/28 10:10:19;;;;;;;10.80;5.80;;;;;;;;;;4359988;32;20154;-63
2021/10/28 10:12:46;;;;;;;9.30;5.80;;;;;;;;;;4361675;32;20104;-66
2021/10/28 10:15:13;;;;;;;9.98;5.78;;;;;;;;;;4354617;32;20086;-65
2021/10/28 10:17:41;;;;;;;12.68;6.03;;;;;;;;;;4384988;32;20544;-62
2021/10/28 10:20:13;;;;;;;10.57;6.28;;;;;;;;;;4362132;32;20094;-61
2021/10/28 10:26:14;;;;;;;8.90;5.47;;;;;;;;;;4372360;32;20077;-65
2021/10/28 11:30:01;;;;;;;8.25;4.37;;;;;;;;;;4387895;32;20057;-63
2021/10/28 12:20:40;;;;;;;6.90;4.60;;;;;;;;;;4375996;32;20066;-63
2021/10/28 12:29:06;;;;;;;6.53;4.20;;;;;;;;;;4365896;32;20102;-64
2021/10/28 13:02:06;;;;;;;11.68;4.47;;;;;;;;;;4365065;32;20230;-62
2021/10/28 13:03:34;;;;;;;6.78;4.25;;;;;;;;;;4364367;32;20391;-61
2021/10/28 15:00:33;;;;;;;7.55;4.80;;;;;;;;;;4393026;32;20145;-60
2021/10/28 15:32:48;;;;;;;8.73;5.60;;;;;;;;;;4379179;32;20089;-59
2021/10/28 15:35:22;;;;;;;9.68;5.22;;;;;;;;;;4381522;32;20544;-60
2021/10/28 15:38:05;;;;;;;9.73;5.32;;;;;;;;;;4380863;32;20146;-61
2021/10/28 16:23:52;;;;;;;10.50;5.90;;;;;;;;;;4392218;32;20085;-61
2021/10/28 16:26:18;;;;;;;12.23;5.47;;;;;;;;;;4365921;32;20093;-61
2021/10/28 16:28:45;;;;;;;10.95;6.57;;;;;;;;;;4391057;32;20093;-61
2021/10/28 16:31:14;;;;;;;11.80;6.00;;;;;;;;;;4378237;32;20093;-60
2021/10/28 16:33:41;;;;;;;10.65;6.65;;;;;;;;;;4378853;32;20089;-60
2021/10/28 16:36:08;;;;;;;11.90;6.80;;;;;;;;;;4378291;32;20080;-61
2021/10/28 16:38:35;;;;;;;11.85;6.28;;;;;;;;;;4366186;32;20081;-60
2021/10/28 16:41:02;;;;;;;9.90;6.05;;;;;;;;;;4365317;32;20166;-61
2021/10/28 16:43:29;;;;;;;8.90;6.20;;;;;;;;;;4391071;32;20085;-61
2021/10/28 16:45:55;;;;;;;8.80;6.15;;;;;;;;;;4378109;32;20081;-61
2021/10/28 16:48:22;;;;;;;11.38;6.50;;;;;;;;;;4353427;32;20073;-61
2021/10/28 16:50:49;;;;;;;8.90;6.35;;;;;;;;;;4377565;32;20090;-60
2021/10/28 16:53:16;;;;;;;11.50;6.50;;;;;;;;;;4365599;32;20070;-62
2021/10/28 16:55:43;;;;;;;9.23;6.28;;;;;;;;;;4391100;32;20082;-60
2021/10/28 16:58:10;;;;;;;11.52;6.30;;;;;;;;;;4378471;32;20074;-61
2021/10/28 17:00:37;;;;;;;11.75;7.10;;;;;;;;;;4390734;32;20092;-61
2021/10/28 17:03:04;;;;;;;10.98;6.50;;;;;;;;;;4392524;32;20073;-60
2021/10/28 17:05:31;;;;;;;11.12;6.60;;;;;;;;;;4391214;32;20510;-60
2021/10/28 17:07:58;;;;;;;11.73;6.90;;;;;;;;;;4378128;32;20078;-59
2021/10/28 17:10:24;;;;;;;14.27;7.15;;;;;;;;;;4390489;32;20235;-60
2021/10/28 17:12:51;;;;;;;11.48;6.45;;;;;;;;;;4390349;32;20076;-60
2021/10/28 17:15:19;;;;;;;11.23;6.62;;;;;;;;;;4353267;32;20450;-60
2021/10/28 17:17:46;;;;;;;10.48;7.25;;;;;;;;;;4377455;32;20589;-61
2021/10/28 17:20:13;;;;;;;9.70;6.62;;;;;;;;;;4365248;32;20097;-59
2021/10/28 17:22:40;;;;;;;10.45;6.50;;;;;;;;;;4389891;32;20183;-61
2021/10/28 17:25:09;;;;;;;9.80;6.47;;;;;;;;;;4365306;32;20077;-60
2021/10/28 17:27:35;;;;;;;9.98;6.70;;;;;;;;;;4377543;32;20157;-61
2021/10/28 17:30:06;;;;;;;10.50;6.28;;;;;;;;;;4352370;32;20147;-60
2021/10/28 17:32:34;;;;;;;11.73;7.22;;;;;;;;;;4378071;32;20086;-60
2021/10/28 17:35:01;;;;;;;9.73;6.47;;;;;;;;;;4381278;32;20496;-60
2021/10/28 17:37:28;;;;;;;11.50;6.90;;;;;;;;;;4380677;32;20084;-60
2021/10/28 17:39:55;;;;;;;11.82;6.40;;;;;;;;;;4378134;32;20503;-60
2021/10/28 17:42:21;;;;;;;10.82;7.20;;;;;;;;;;4391797;32;20085;-61
2021/10/28 17:44:53;;;;;;;11.30;6.80;;;;;;;;;;4365315;32;20077;-60
2021/10/28 17:47:20;;;;;;;10.60;7.00;;;;;;;;;;4390372;32;20203;-61
2021/10/28 17:49:46;;;;;;;12.00;6.68;;;;;;;;;;4377528;32;20095;-61
2021/10/28 17:52:13;;;;;;;13.02;6.75;;;;;;;;;;4377335;32;20097;-61
2021/10/28 17:54:40;;;;;;;10.25;7.28;;;;;;;;;;4377786;32;20084;-61
2021/10/28 17:57:07;;;;;;;11.85;6.70;;;;;;;;;;4377346;32;20170;-60
2021/10/28 17:59:34;;;;;;;13.77;7.35;;;;;;;;;;4364865;32;20073;-60
2021/10/28 18:02:01;;;;;;;11.85;7.07;;;;;;;;;;4352587;32;20071;-60
2021/10/28 18:04:28;;;;;;;12.55;6.62;;;;;;;;;;4352718;32;20179;-61
2021/10/28 18:06:55;;;;;;;12.18;6.87;;;;;;;;;;4352460;32;20082;-60
2021/10/28 18:09:23;;;;;;;11.40;6.72;;;;;;;;;;4377183;32;20529;-61
2021/10/28 18:11:52;;;;;;;12.60;6.70;;;;;;;;;;4389671;32;20092;-61
2021/10/28 18:14:19;;;;;;;12.98;7.30;;;;;;;;;;4365109;32;20072;-60
2021/10/28 18:16:45;;;;;;;12.85;6.93;;;;;;;;;;4365006;32;20151;-61
2021/10/28 18:19:12;;;;;;;11.32;6.90;;;;;;;;;;4364745;32;20070;-60
2021/10/28 18:21:42;;;;;;;12.63;7.50;;;;;;;;;;4389934;32;20081;-61
2021/10/28 18:24:09;;;;;;;10.93;7.18;;;;;;;;;;4379091;32;20495;-61
2021/10/28 18:26:36;;;;;;;10.50;6.90;;;;;;;;;;4366304;32;20509;-61
2021/10/28 18:29:03;;;;;;;10.07;6.82;;;;;;;;;;4365453;32;20161;-61
2021/10/28 18:31:30;;;;;;;11.00;6.80;;;;;;;;;;4365408;32;20519;-61
2021/10/28 18:33:57;;;;;;;9.38;6.32;;;;;;;;;;4378249;32;20104;-60
2021/10/28 18:36:30;;;;;;;12.82;6.18;;;;;;;;;;4353283;32;20466;-60
2021/10/28 18:38:57;;;;;;;9.77;6.20;;;;;;;;;;4369863;32;20097;-62
2021/10/28 18:41:25;;;;;;;9.15;6.50;;;;;;;;;;4393277;32;20085;-60
2021/10/28 18:43:52;;;;;;;12.18;6.35;;;;;;;;;;4393176;32;20175;-61
2021/10/28 18:46:21;;;;;;;12.52;6.87;;;;;;;;;;4380400;32;20248;-59
2021/10/28 18:48:50;;;;;;;12.18;7.62;;;;;;;;;;4368291;32;20512;-60
2021/10/28 18:51:17;;;;;;;9.85;6.05;;;;;;;;;;4379687;32;20089;-59
2021/10/28 18:53:45;;;;;;;11.95;6.90;;;;;;;;;;4367617;32;20074;-62
2021/10/28 18:56:12;;;;;;;10.20;6.87;;;;;;;;;;4380472;32;20069;-60
2021/10/28 18:58:39;;;;;;;11.30;6.62;;;;;;;;;;4367605;32;20090;-60
2021/10/28 19:01:06;;;;;;;11.45;6.93;;;;;;;;;;4380253;32;20072;-60
2021/10/28 19:06:14;;;;;;;9.63;6.72;;;;;;;;;;3834277;37;20058;-60
2021/10/28 19:08:42;;;;;;;11.27;6.37;;;;;;;;;;4378087;32;20442;-61
2021/10/28 19:11:10;;;;;;;11.00;6.30;;;;;;;;;;4390805;32;20119;-60
2021/10/28 19:13:41;;;;;;;11.63;6.43;;;;;;;;;;4390867;32;20451;-60
2021/10/28 19:16:08;;;;;;;11.05;7.03;;;;;;;;;;4390400;32;20566;-61
2021/10/28 19:18:35;;;;;;;10.35;6.47;;;;;;;;;;4365244;32;20189;-60
2021/10/28 19:21:02;;;;;;;10.15;7.15;;;;;;;;;;4390275;32;20080;-61
2021/10/28 19:23:29;;;;;;;10.77;5.90;;;;;;;;;;4378033;32;20528;-61
2021/10/28 19:25:56;;;;;;;10.27;6.25;;;;;;;;;;4390487;32;20173;-60
2021/10/28 19:28:25;;;;;;;11.05;6.60;;;;;;;;;;4390199;32;20567;-60
2021/10/28 19:30:57;;;;;;;10.60;6.55;;;;;;;;;;4390445;32;20156;-60
2021/10/28 19:33:39;;;;;;;9.05;6.62;;;;;;;;;;4379354;32;20070;-61
2021/10/28 19:36:10;;;;;;;9.63;6.62;;;;;;;;;;4381488;32;20073;-60
2021/10/28 19:46:49;;;;;;;11.82;6.90;;;;;;;;;;4381615;32;20084;-60
2021/10/28 19:49:15;;;;;;;10.65;7.05;;;;;;;;;;4390218;32;20065;-60
2021/10/28 19:51:43;;;;;;;8.30;5.93;;;;;;;;;;4402552;32;20084;-60
2021/10/28 19:54:12;;;;;;;11.25;6.43;;;;;;;;;;4377622;32;20086;-60
2021/10/28 19:56:40;;;;;;;10.25;6.20;;;;;;;;;;4378481;32;20141;-60
2021/10/28 19:59:08;;;;;;;11.95;7.07;;;;;;;;;;4377992;32;20094;-60
2021/10/28 20:07:07;;;;;;;9.85;6.30;;;;;;;;;;4393755;32;20507;-60
2021/10/28 20:21:02;;;;;;;8.45;5.95;;;;;;;;;;4408723;32;20089;-61
2021/10/28 20:23:29;;;;;;;10.10;7.00;;;;;;;;;;4357517;32;20096;-60
2021/10/28 20:25:56;;;;;;;10.07;6.78;;;;;;;;;;4369463;32;20069;-61
2021/10/28 20:28:23;;;;;;;9.85;6.75;;;;;;;;;;4357119;32;20098;-60
2021/10/28 20:33:20;;;;;;;11.38;5.95;;;;;;;;;;4382068;32;20503;-61
2021/10/28 20:38:32;;;;;;;10.60;6.35;;;;;;;;;;4373010;32;20098;-61
2021/10/28 20:40:58;;;;;;;10.30;6.65;;;;;;;;;;4382166;32;20081;-61
2021/10/28 20:43:25;;;;;;;9.30;6.18;;;;;;;;;;4369225;32;20069;-60
2021/10/28 20:45:52;;;;;;;10.35;6.87;;;;;;;;;;4369240;32;20142;-61
2021/10/28 20:48:18;;;;;;;10.40;6.82;;;;;;;;;;4369104;32;20161;-61
2021/10/28 20:50:45;;;;;;;11.02;7.22;;;;;;;;;;4369051;32;20165;-61
2021/10/28 20:53:12;;;;;;;8.93;5.90;;;;;;;;;;4356826;32;20112;-61
2021/10/28 20:55:39;;;;;;;8.32;6.25;;;;;;;;;;4368740;32;20092;-60
2021/10/28 20:58:06;;;;;;;8.95;6.10;;;;;;;;;;4356791;32;20163;-59
2021/10/28 21:00:33;;;;;;;10.07;6.55;;;;;;;;;;4394063;32;20515;-60
2021/10/28 21:02:59;;;;;;;10.40;6.78;;;;;;;;;;4394319;32;20073;-61
2021/10/28 21:05:27;;;;;;;10.65;6.90;;;;;;;;;;4381079;32;20105;-61
2021/10/28 21:07:54;;;;;;;10.80;6.40;;;;;;;;;;4368910;32;20086;-61
2021/10/28 21:10:26;;;;;;;11.07;6.87;;;;;;;;;;4369075;32;20081;-61
2021/10/28 21:12:56;;;;;;;9.13;6.35;;;;;;;;;;4394786;32;20100;-61
2021/10/28 21:15:23;;;;;;;9.30;6.18;;;;;;;;;;4368961;32;20066;-61
2021/10/28 21:17:50;;;;;;;10.38;6.25;;;;;;;;;;4368996;32;20074;-62
2021/10/28 21:20:17;;;;;;;12.32;6.65;;;;;;;;;;4381574;32;20104;-60
2021/10/28 21:22:44;;;;;;;11.73;6.57;;;;;;;;;;4369035;32;20085;-61
2021/10/28 21:25:12;;;;;;;9.55;6.45;;;;;;;;;;4380939;32;20090;-61
2021/10/28 21:27:39;;;;;;;9.52;7.00;;;;;;;;;;4368481;32;20138;-61
2021/10/28 21:30:08;;;;;;;13.52;6.90;;;;;;;;;;4380696;32;20137;-61
2021/10/28 21:32:36;;;;;;;10.93;6.62;;;;;;;;;;4380994;32;20162;-61
2021/10/28 21:35:04;;;;;;;10.05;6.87;;;;;;;;;;4381335;32;20107;-60
2021/10/28 21:37:31;;;;;;;10.25;6.82;;;;;;;;;;4381204;32;20517;-61
2021/10/28 21:39:58;;;;;;;11.07;7.22;;;;;;;;;;4381035;32;20447;-60
2021/10/28 21:42:25;;;;;;;10.38;6.22;;;;;;;;;;4368279;32;20070;-60
2021/10/28 21:44:54;;;;;;;9.95;6.43;;;;;;;;;;4381217;32;20089;-61
2021/10/28 21:47:21;;;;;;;10.68;6.45;;;;;;;;;;4393675;32;20070;-62
2021/10/28 21:49:48;;;;;;;11.10;6.80;;;;;;;;;;4381216;32;20069;-61
2021/10/28 21:52:24;;;;;;;8.90;6.20;;;;;;;;;;4380563;32;20076;-60
2021/10/28 22:03:16;;;;;;;10.88;6.93;;;;;;;;;;4380698;32;20088;-61
2021/10/28 22:26:34;;;;;;;9.95;6.68;;;;;;;;;;4407047;32;20463;-62
2021/10/28 22:29:00;;;;;;;9.93;6.15;;;;;;;;;;4368452;32;20061;-60
2021/10/28 22:31:27;;;;;;;9.95;6.03;;;;;;;;;;4392289;32;20093;-61
2021/10/28 22:33:54;;;;;;;8.80;6.25;;;;;;;;;;4380501;32;20108;-61
2021/10/28 22:36:37;;;;;;;9.00;6.05;;;;;;;;;;4369811;32;20164;-60
2021/10/28 22:39:10;;;;;;;11.48;6.47;;;;;;;;;;4398471;32;20122;-61
2021/10/28 22:41:37;;;;;;;11.98;6.80;;;;;;;;;;4356930;32;20074;-60
2021/10/28 22:44:04;;;;;;;8.88;5.78;;;;;;;;;;4355707;32;20100;-60
2021/10/28 22:46:31;;;;;;;10.40;6.85;;;;;;;;;;4367894;32;20084;-60
2021/10/28 22:48:58;;;;;;;9.98;6.28;;;;;;;;;;4368096;32;20103;-60
2021/10/28 22:51:25;;;;;;;8.40;6.12;;;;;;;;;;4379974;32;20066;-61
2021/10/28 22:53:52;;;;;;;9.95;6.47;;;;;;;;;;4392735;32;20488;-61
2021/10/28 22:56:19;;;;;;;11.98;6.70;;;;;;;;;;4380856;32;20188;-60
2021/10/28 22:58:48;;;;;;;10.32;6.25;;;;;;;;;;4380513;32;20185;-60
2021/10/28 23:06:48;;;;;;;9.73;6.60;;;;;;;;;;4384228;32;20161;-61
2021/10/28 23:15:01;;;;;;;10.77;6.93;;;;;;;;;;4381946;32;20088;-61
2021/10/28 23:22:58;;;;;;;10.68;6.97;;;;;;;;;;4394513;32;20500;-61
2021/10/28 23:25:25;;;;;;;9.32;6.68;;;;;;;;;;4379559;32;20085;-61
2021/10/28 23:27:51;;;;;;;10.55;6.90;;;;;;;;;;4368131;32;20081;-61
2021/10/28 23:30:18;;;;;;;8.90;6.07;;;;;;;;;;4380269;32;20070;-61
2021/10/28 23:32:45;;;;;;;9.98;6.53;;;;;;;;;;4367641;32;20535;-61
2021/10/28 23:35:12;;;;;;;9.38;6.05;;;;;;;;;;4354875;32;20081;-61
2021/10/28 23:37:38;;;;;;;11.30;6.70;;;;;;;;;;4367354;32;20093;-62
2021/10/28 23:40:06;;;;;;;9.73;6.30;;;;;;;;;;4406380;32;20096;-61
2021/10/28 23:42:32;;;;;;;9.73;6.03;;;;;;;;;;4367211;32;20087;-60
2021/10/28 23:44:59;;;;;;;8.98;6.03;;;;;;;;;;4391934;32;20597;-61
2021/10/28 23:47:26;;;;;;;10.50;6.50;;;;;;;;;;4379378;32;20085;-61
2021/10/28 23:49:53;;;;;;;10.43;6.28;;;;;;;;;;4367097;32;20075;-61
2021/10/28 23:52:19;;;;;;;9.88;5.90;;;;;;;;;;4394191;32;20072;-61
2021/10/28 23:54:46;;;;;;;10.15;6.45;;;;;;;;;;4383062;32;20530;-60
2021/10/28 23:57:12;;;;;;;11.23;7.00;;;;;;;;;;4409308;32;20100;-61
2021/10/28 23:59:39;;;;;;;9.98;6.85;;;;;;;;;;4409318;32;20459;-61
